sensor_id;sensor_type;location;lat;lon;timestamp;P1;durP1;ratioP1;P2;durP2;ratioP2
11267;SDS011;49397;47.474;9.416;2022-11-28T00:00:40;20.20;;;14.50;;
11267;SDS011;49397;47.474;9.416;2022-11-28T00:03:06;21.50;;;13.50;;
11267;SDS011;49397;47.474;9.416;2022-11-28T00:05:33;22.13;;;13.70;;
11267;SDS011;49397;47.474;9.416;2022-11-28T00:07:59;22.70;;;13.60;;
11267;SDS011;49397;47.474;9.416;2022-11-28T00:10:25;22.37;;;14.67;;
11267;SDS011;49397;47.474;9.416;2022-11-28T00:12:50;19.87;;;13.57;;
11267;SDS011;49397;47.474;9.416;2022-11-28T00:15:15;20.57;;;14.30;;
11267;SDS011;49397;47.474;9.416;2022-11-28T00:17:41;19.20;;;13.47;;
11267;SDS011;49397;47.474;9.416;2022-11-28T00:20:06;20.23;;;12.93;;
11267;SDS011;49397;47.474;9.416;2022-11-28T00:22:32;17.90;;;12.87;;
11267;SDS011;49397;47.474;9.416;2022-11-28T00:24:57;23.73;;;13.40;;
11267;SDS011;49397;47.474;9.416;2022-11-28T00:27:23;19.30;;;12.43;;
11267;SDS011;49397;47.474;9.416;2022-11-28T00:29:48;22.33;;;12.73;;
11267;SDS011;49397;47.474;9.416;2022-11-28T00:32:14;22.57;;;13.73;;
11267;SDS011;49397;47.474;9.416;2022-11-28T00:34:39;19.53;;;13.37;;
11267;SDS011;49397;47.474;9.416;2022-11-28T00:37:05;20.73;;;13.40;;
11267;SDS011;49397;47.474;9.416;2022-11-28T00:39:30;18.33;;;12.97;;
11267;SDS011;49397;47.474;9.416;2022-11-28T00:41:56;18.70;;;13.77;;
11267;SDS011;49397;47.474;9.416;2022-11-28T00:44:21;22.77;;;14.57;;
11267;SDS011;49397;47.474;9.416;2022-11-28T00:46:47;18.17;;;13.57;;
11267;SDS011;49397;47.474;9.416;2022-11-28T00:49:12;21.23;;;13.43;;
11267;SDS011;49397;47.474;9.416;2022-11-28T00:51:37;23.57;;;14.40;;
11267;SDS011;49397;47.474;9.416;2022-11-28T00:54:03;25.43;;;14.20;;
11267;SDS011;49397;47.474;9.416;2022-11-28T00:56:35;19.47;;;13.17;;
11267;SDS011;49397;47.474;9.416;2022-11-28T00:59:02;20.90;;;13.63;;
11267;SDS011;49397;47.474;9.416;2022-11-28T01:01:29;22.87;;;14.20;;
11267;SDS011;49397;47.474;9.416;2022-11-28T01:04:04;20.07;;;13.17;;
11267;SDS011;49397;47.474;9.416;2022-11-28T01:06:33;19.70;;;13.67;;
11267;SDS011;49397;47.474;9.416;2022-11-28T01:09:08;21.00;;;14.10;;
11267;SDS011;49397;47.474;9.416;2022-11-28T01:11:41;22.63;;;13.90;;
11267;SDS011;49397;47.474;9.416;2022-11-28T01:14:08;18.83;;;13.30;;
11267;SDS011;49397;47.474;9.416;2022-11-28T01:16:36;19.13;;;13.50;;
11267;SDS011;49397;47.474;9.416;2022-11-28T01:19:02;20.07;;;13.70;;
11267;SDS011;49397;47.474;9.416;2022-11-28T01:21:28;21.57;;;13.77;;
11267;SDS011;49397;47.474;9.416;2022-11-28T01:23:53;20.37;;;13.27;;
11267;SDS011;49397;47.474;9.416;2022-11-28T01:26:20;19.63;;;13.27;;
11267;SDS011;49397;47.474;9.416;2022-11-28T01:28:50;22.53;;;14.10;;
11267;SDS011;49397;47.474;9.416;2022-11-28T01:31:17;20.97;;;13.57;;
11267;SDS011;49397;47.474;9.416;2022-11-28T01:33:44;19.23;;;12.47;;
11267;SDS011;49397;47.474;9.416;2022-11-28T01:36:11;19.60;;;14.20;;
11267;SDS011;49397;47.474;9.416;2022-11-28T01:38:38;20.53;;;14.13;;
11267;SDS011;49397;47.474;9.416;2022-11-28T01:41:03;15.83;;;12.67;;
11267;SDS011;49397;47.474;9.416;2022-11-28T01:43:29;22.10;;;13.30;;
11267;SDS011;49397;47.474;9.416;2022-11-28T01:45:54;20.43;;;14.60;;
11267;SDS011;49397;47.474;9.416;2022-11-28T01:48:28;19.03;;;13.03;;
11267;SDS011;49397;47.474;9.416;2022-11-28T01:50:57;21.43;;;13.47;;
11267;SDS011;49397;47.474;9.416;2022-11-28T01:53:25;19.90;;;12.43;;
11267;SDS011;49397;47.474;9.416;2022-11-28T01:55:56;24.90;;;13.63;;
11267;SDS011;49397;47.474;9.416;2022-11-28T01:58:32;18.53;;;13.37;;
11267;SDS011;49397;47.474;9.416;2022-11-28T02:01:00;16.30;;;11.73;;
11267;SDS011;49397;47.474;9.416;2022-11-28T02:03:28;18.50;;;13.20;;
11267;SDS011;49397;47.474;9.416;2022-11-28T02:05:58;17.53;;;12.67;;
11267;SDS011;49397;47.474;9.416;2022-11-28T02:08:24;19.33;;;13.07;;
11267;SDS011;49397;47.474;9.416;2022-11-28T02:11:00;22.23;;;14.13;;
11267;SDS011;49397;47.474;9.416;2022-11-28T02:13:31;19.50;;;13.77;;
11267;SDS011;49397;47.474;9.416;2022-11-28T02:35:39;16.30;;;11.97;;
11267;SDS011;49397;47.474;9.416;2022-11-28T02:38:19;18.60;;;12.73;;
11267;SDS011;49397;47.474;9.416;2022-11-28T02:51:58;15.97;;;11.27;;
11267;SDS011;49397;47.474;9.416;2022-11-28T02:54:27;17.73;;;12.20;;
11267;SDS011;49397;47.474;9.416;2022-11-28T02:56:55;17.40;;;11.83;;
11267;SDS011;49397;47.474;9.416;2022-11-28T03:01:49;20.50;;;12.10;;
11267;SDS011;49397;47.474;9.416;2022-11-28T03:04:17;17.87;;;10.53;;
11267;SDS011;49397;47.474;9.416;2022-11-28T03:09:44;14.83;;;10.13;;
11267;SDS011;49397;47.474;9.416;2022-11-28T03:12:31;14.20;;;10.10;;
11267;SDS011;49397;47.474;9.416;2022-11-28T03:15:19;16.47;;;10.77;;
11267;SDS011;49397;47.474;9.416;2022-11-28T03:17:57;16.03;;;11.63;;
11267;SDS011;49397;47.474;9.416;2022-11-28T03:23:14;17.30;;;11.47;;
11267;SDS011;49397;47.474;9.416;2022-11-28T03:25:46;18.43;;;13.03;;
11267;SDS011;49397;47.474;9.416;2022-11-28T03:31:14;16.57;;;11.13;;
11267;SDS011;49397;47.474;9.416;2022-11-28T03:33:46;18.80;;;11.27;;
11267;SDS011;49397;47.474;9.416;2022-11-28T03:36:17;17.03;;;11.10;;
11267;SDS011;49397;47.474;9.416;2022-11-28T03:38:49;14.40;;;9.80;;
11267;SDS011;49397;47.474;9.416;2022-11-28T03:41:27;18.07;;;11.20;;
11267;SDS011;49397;47.474;9.416;2022-11-28T03:43:58;15.87;;;11.07;;
11267;SDS011;49397;47.474;9.416;2022-11-28T03:46:32;15.30;;;10.43;;
11267;SDS011;49397;47.474;9.416;2022-11-28T03:49:02;15.97;;;11.03;;
11267;SDS011;49397;47.474;9.416;2022-11-28T03:51:32;12.93;;;10.43;;
11267;SDS011;49397;47.474;9.416;2022-11-28T03:57:05;14.70;;;9.63;;
11267;SDS011;49397;47.474;9.416;2022-11-28T03:59:45;13.63;;;9.63;;
11267;SDS011;49397;47.474;9.416;2022-11-28T04:02:33;13.40;;;9.37;;
11267;SDS011;49397;47.474;9.416;2022-11-28T04:07:52;14.53;;;9.63;;
11267;SDS011;49397;47.474;9.416;2022-11-28T04:13:11;13.97;;;10.23;;
11267;SDS011;49397;47.474;9.416;2022-11-28T04:15:46;14.40;;;10.37;;
11267;SDS011;49397;47.474;9.416;2022-11-28T04:18:31;18.43;;;11.33;;
11267;SDS011;49397;47.474;9.416;2022-11-28T04:21:23;15.20;;;9.57;;
11267;SDS011;49397;47.474;9.416;2022-11-28T04:23:59;13.87;;;10.10;;
11267;SDS011;49397;47.474;9.416;2022-11-28T04:26:39;13.93;;;9.50;;
11267;SDS011;49397;47.474;9.416;2022-11-28T04:29:08;18.37;;;10.73;;
11267;SDS011;49397;47.474;9.416;2022-11-28T04:31:38;15.97;;;9.67;;
11267;SDS011;49397;47.474;9.416;2022-11-28T04:34:06;11.57;;;9.13;;
11267;SDS011;49397;47.474;9.416;2022-11-28T04:36:37;16.20;;;11.03;;
11267;SDS011;49397;47.474;9.416;2022-11-28T04:39:05;14.03;;;9.87;;
11267;SDS011;49397;47.474;9.416;2022-11-28T04:41:39;14.20;;;10.53;;
11267;SDS011;49397;47.474;9.416;2022-11-28T04:44:18;14.30;;;10.63;;
11267;SDS011;49397;47.474;9.416;2022-11-28T04:46:50;16.77;;;11.70;;
11267;SDS011;49397;47.474;9.416;2022-11-28T04:49:18;17.10;;;11.60;;
11267;SDS011;49397;47.474;9.416;2022-11-28T04:54:41;16.97;;;12.07;;
11267;SDS011;49397;47.474;9.416;2022-11-28T05:00:04;14.03;;;10.40;;
11267;SDS011;49397;47.474;9.416;2022-11-28T05:02:32;17.53;;;12.67;;
11267;SDS011;49397;47.474;9.416;2022-11-28T05:04:59;16.80;;;11.97;;
11267;SDS011;49397;47.474;9.416;2022-11-28T05:07:25;17.27;;;12.27;;
11267;SDS011;49397;47.474;9.416;2022-11-28T05:09:50;17.07;;;12.17;;
11267;SDS011;49397;47.474;9.416;2022-11-28T05:12:16;21.47;;;12.77;;
11267;SDS011;49397;47.474;9.416;2022-11-28T05:14:41;16.50;;;11.63;;
11267;SDS011;49397;47.474;9.416;2022-11-28T05:17:07;17.90;;;11.97;;
11267;SDS011;49397;47.474;9.416;2022-11-28T05:19:35;17.73;;;12.23;;
11267;SDS011;49397;47.474;9.416;2022-11-28T05:22:00;16.00;;;11.60;;
11267;SDS011;49397;47.474;9.416;2022-11-28T05:24:26;17.57;;;12.17;;
11267;SDS011;49397;47.474;9.416;2022-11-28T05:26:51;18.87;;;12.57;;
11267;SDS011;49397;47.474;9.416;2022-11-28T05:29:16;17.40;;;11.27;;
11267;SDS011;49397;47.474;9.416;2022-11-28T05:31:42;17.97;;;12.83;;
11267;SDS011;49397;47.474;9.416;2022-11-28T05:34:07;18.10;;;12.00;;
11267;SDS011;49397;47.474;9.416;2022-11-28T05:36:33;16.03;;;11.83;;
11267;SDS011;49397;47.474;9.416;2022-11-28T05:38:58;20.90;;;11.90;;
11267;SDS011;49397;47.474;9.416;2022-11-28T05:41:26;18.00;;;12.17;;
11267;SDS011;49397;47.474;9.416;2022-11-28T05:43:56;17.60;;;12.27;;
11267;SDS011;49397;47.474;9.416;2022-11-28T05:46:24;15.03;;;10.80;;
11267;SDS011;49397;47.474;9.416;2022-11-28T05:48:49;16.73;;;11.93;;
11267;SDS011;49397;47.474;9.416;2022-11-28T05:51:15;17.13;;;12.00;;
11267;SDS011;49397;47.474;9.416;2022-11-28T05:53:41;18.27;;;12.40;;
11267;SDS011;49397;47.474;9.416;2022-11-28T05:56:10;17.93;;;12.07;;
11267;SDS011;49397;47.474;9.416;2022-11-28T05:58:39;20.40;;;12.57;;
11267;SDS011;49397;47.474;9.416;2022-11-28T06:01:11;15.33;;;12.37;;
11267;SDS011;49397;47.474;9.416;2022-11-28T06:03:39;16.17;;;10.97;;
11267;SDS011;49397;47.474;9.416;2022-11-28T06:06:08;16.40;;;11.90;;
11267;SDS011;49397;47.474;9.416;2022-11-28T06:08:35;16.30;;;10.97;;
11267;SDS011;49397;47.474;9.416;2022-11-28T06:11:00;17.27;;;11.30;;
11267;SDS011;49397;47.474;9.416;2022-11-28T06:13:26;16.57;;;11.90;;
11267;SDS011;49397;47.474;9.416;2022-11-28T06:15:52;17.43;;;12.13;;
11267;SDS011;49397;47.474;9.416;2022-11-28T06:18:17;18.77;;;12.23;;
11267;SDS011;49397;47.474;9.416;2022-11-28T06:20:42;17.47;;;11.20;;
11267;SDS011;49397;47.474;9.416;2022-11-28T06:23:08;17.87;;;11.93;;
11267;SDS011;49397;47.474;9.416;2022-11-28T06:25:33;15.30;;;10.17;;
11267;SDS011;49397;47.474;9.416;2022-11-28T06:27:59;14.47;;;11.10;;
11267;SDS011;49397;47.474;9.416;2022-11-28T06:30:25;17.77;;;11.87;;
11267;SDS011;49397;47.474;9.416;2022-11-28T06:32:50;16.50;;;11.50;;
11267;SDS011;49397;47.474;9.416;2022-11-28T06:35:16;17.03;;;11.33;;
11267;SDS011;49397;47.474;9.416;2022-11-28T06:37:41;15.17;;;10.53;;
11267;SDS011;49397;47.474;9.416;2022-11-28T06:40:07;13.33;;;10.33;;
11267;SDS011;49397;47.474;9.416;2022-11-28T06:42:35;13.77;;;9.63;;
11267;SDS011;49397;47.474;9.416;2022-11-28T06:45:02;18.37;;;12.53;;
11267;SDS011;49397;47.474;9.416;2022-11-28T06:47:31;14.03;;;10.30;;
11267;SDS011;49397;47.474;9.416;2022-11-28T06:49:57;15.97;;;11.03;;
11267;SDS011;49397;47.474;9.416;2022-11-28T06:52:22;17.13;;;11.87;;
11267;SDS011;49397;47.474;9.416;2022-11-28T06:54:48;17.97;;;11.87;;
11267;SDS011;49397;47.474;9.416;2022-11-28T06:57:13;18.77;;;11.83;;
11267;SDS011;49397;47.474;9.416;2022-11-28T06:59:39;15.30;;;11.07;;
11267;SDS011;49397;47.474;9.416;2022-11-28T07:02:04;18.53;;;11.93;;
11267;SDS011;49397;47.474;9.416;2022-11-28T07:04:30;15.30;;;10.77;;
11267;SDS011;49397;47.474;9.416;2022-11-28T07:06:56;16.90;;;11.80;;
11267;SDS011;49397;47.474;9.416;2022-11-28T07:09:22;14.43;;;10.60;;
11267;SDS011;49397;47.474;9.416;2022-11-28T07:11:47;17.77;;;11.70;;
11267;SDS011;49397;47.474;9.416;2022-11-28T07:14:13;14.30;;;10.73;;
11267;SDS011;49397;47.474;9.416;2022-11-28T07:16:38;14.63;;;11.03;;
11267;SDS011;49397;47.474;9.416;2022-11-28T07:19:04;19.50;;;12.43;;
11267;SDS011;49397;47.474;9.416;2022-11-28T07:21:29;17.97;;;10.33;;
11267;SDS011;49397;47.474;9.416;2022-11-28T07:23:56;15.03;;;11.10;;
11267;SDS011;49397;47.474;9.416;2022-11-28T07:26:22;19.77;;;13.07;;
11267;SDS011;49397;47.474;9.416;2022-11-28T07:28:48;18.60;;;11.63;;
11267;SDS011;49397;47.474;9.416;2022-11-28T07:31:16;17.13;;;11.80;;
11267;SDS011;49397;47.474;9.416;2022-11-28T07:33:44;15.93;;;11.20;;
11267;SDS011;49397;47.474;9.416;2022-11-28T07:36:13;17.77;;;11.33;;
11267;SDS011;49397;47.474;9.416;2022-11-28T07:38:42;12.53;;;10.47;;
11267;SDS011;49397;47.474;9.416;2022-11-28T07:41:11;17.80;;;12.03;;
11267;SDS011;49397;47.474;9.416;2022-11-28T07:43:38;17.67;;;11.53;;
11267;SDS011;49397;47.474;9.416;2022-11-28T07:46:08;17.80;;;11.40;;
11267;SDS011;49397;47.474;9.416;2022-11-28T07:48:35;18.90;;;11.57;;
11267;SDS011;49397;47.474;9.416;2022-11-28T07:51:20;17.77;;;12.43;;
11267;SDS011;49397;47.474;9.416;2022-11-28T07:53:48;14.77;;;10.83;;
11267;SDS011;49397;47.474;9.416;2022-11-28T07:56:15;21.83;;;12.97;;
11267;SDS011;49397;47.474;9.416;2022-11-28T07:58:43;17.33;;;10.93;;
11267;SDS011;49397;47.474;9.416;2022-11-28T08:01:14;15.07;;;11.00;;
11267;SDS011;49397;47.474;9.416;2022-11-28T08:03:42;17.63;;;10.83;;
11267;SDS011;49397;47.474;9.416;2022-11-28T08:06:11;18.40;;;10.83;;
11267;SDS011;49397;47.474;9.416;2022-11-28T08:08:38;15.87;;;11.17;;
11267;SDS011;49397;47.474;9.416;2022-11-28T08:11:05;14.23;;;10.40;;
11267;SDS011;49397;47.474;9.416;2022-11-28T08:13:32;17.03;;;12.43;;
11267;SDS011;49397;47.474;9.416;2022-11-28T08:16:01;17.57;;;11.63;;
11267;SDS011;49397;47.474;9.416;2022-11-28T08:18:28;23.33;;;14.90;;
11267;SDS011;49397;47.474;9.416;2022-11-28T08:21:01;20.47;;;13.90;;
11267;SDS011;49397;47.474;9.416;2022-11-28T08:23:28;24.03;;;14.90;;
11267;SDS011;49397;47.474;9.416;2022-11-28T08:25:53;26.30;;;14.90;;
11267;SDS011;49397;47.474;9.416;2022-11-28T08:28:19;24.47;;;14.10;;
11267;SDS011;49397;47.474;9.416;2022-11-28T08:30:44;22.73;;;14.10;;
11267;SDS011;49397;47.474;9.416;2022-11-28T08:33:10;22.37;;;15.27;;
11267;SDS011;49397;47.474;9.416;2022-11-28T08:35:37;25.07;;;14.57;;
11267;SDS011;49397;47.474;9.416;2022-11-28T08:38:03;18.47;;;11.97;;
11267;SDS011;49397;47.474;9.416;2022-11-28T08:40:29;15.67;;;11.73;;
11267;SDS011;49397;47.474;9.416;2022-11-28T08:42:54;17.70;;;11.87;;
11267;SDS011;49397;47.474;9.416;2022-11-28T08:45:20;16.47;;;11.47;;
11267;SDS011;49397;47.474;9.416;2022-11-28T08:47:45;17.33;;;12.17;;
11267;SDS011;49397;47.474;9.416;2022-11-28T08:50:11;18.67;;;12.70;;
11267;SDS011;49397;47.474;9.416;2022-11-28T08:52:36;16.43;;;11.60;;
11267;SDS011;49397;47.474;9.416;2022-11-28T08:55:02;16.67;;;11.83;;
11267;SDS011;49397;47.474;9.416;2022-11-28T08:57:28;18.77;;;13.00;;
11267;SDS011;49397;47.474;9.416;2022-11-28T08:59:53;15.47;;;11.93;;
11267;SDS011;49397;47.474;9.416;2022-11-28T09:02:19;17.20;;;11.87;;
11267;SDS011;49397;47.474;9.416;2022-11-28T09:04:44;18.80;;;12.23;;
11267;SDS011;49397;47.474;9.416;2022-11-28T09:07:10;20.40;;;13.30;;
11267;SDS011;49397;47.474;9.416;2022-11-28T09:09:35;22.03;;;13.17;;
11267;SDS011;49397;47.474;9.416;2022-11-28T09:12:00;16.90;;;12.23;;
11267;SDS011;49397;47.474;9.416;2022-11-28T09:14:26;20.37;;;12.33;;
11267;SDS011;49397;47.474;9.416;2022-11-28T09:16:52;18.67;;;11.80;;
11267;SDS011;49397;47.474;9.416;2022-11-28T09:19:17;19.17;;;12.60;;
11267;SDS011;49397;47.474;9.416;2022-11-28T09:21:43;17.43;;;13.30;;
11267;SDS011;49397;47.474;9.416;2022-11-28T09:24:08;18.00;;;13.20;;
11267;SDS011;49397;47.474;9.416;2022-11-28T09:26:34;19.40;;;12.50;;
11267;SDS011;49397;47.474;9.416;2022-11-28T09:28:59;19.27;;;12.83;;
11267;SDS011;49397;47.474;9.416;2022-11-28T09:31:25;17.00;;;12.40;;
11267;SDS011;49397;47.474;9.416;2022-11-28T09:33:50;15.07;;;11.70;;
11267;SDS011;49397;47.474;9.416;2022-11-28T09:36:18;16.33;;;11.50;;
11267;SDS011;49397;47.474;9.416;2022-11-28T09:38:45;15.20;;;11.63;;
11267;SDS011;49397;47.474;9.416;2022-11-28T09:43:56;21.00;;;13.10;;
11267;SDS011;49397;47.474;9.416;2022-11-28T09:46:31;18.07;;;11.30;;
11267;SDS011;49397;47.474;9.416;2022-11-28T09:49:02;15.70;;;11.50;;
11267;SDS011;49397;47.474;9.416;2022-11-28T09:52:17;21.57;;;13.10;;
11267;SDS011;49397;47.474;9.416;2022-11-28T09:54:22;20.83;;;13.23;;
11267;SDS011;49397;47.474;9.416;2022-11-28T09:56:56;16.50;;;11.90;;
11267;SDS011;49397;47.474;9.416;2022-11-28T09:59:28;18.50;;;12.93;;
11267;SDS011;49397;47.474;9.416;2022-11-28T10:04:28;15.17;;;11.63;;
11267;SDS011;49397;47.474;9.416;2022-11-28T10:07:15;19.27;;;13.17;;
11267;SDS011;49397;47.474;9.416;2022-11-28T10:20:40;16.57;;;13.33;;
11267;SDS011;49397;47.474;9.416;2022-11-28T10:23:16;15.27;;;12.07;;
11267;SDS011;49397;47.474;9.416;2022-11-28T10:25:53;19.43;;;11.93;;
11267;SDS011;49397;47.474;9.416;2022-11-28T10:28:27;14.73;;;11.77;;
11267;SDS011;49397;47.474;9.416;2022-11-28T10:30:59;21.83;;;13.47;;
11267;SDS011;49397;47.474;9.416;2022-11-28T10:33:38;18.90;;;12.60;;
11267;SDS011;49397;47.474;9.416;2022-11-28T10:36:14;19.37;;;12.33;;
11267;SDS011;49397;47.474;9.416;2022-11-28T10:38:46;17.97;;;12.80;;
11267;SDS011;49397;47.474;9.416;2022-11-28T10:41:13;16.07;;;12.63;;
11267;SDS011;49397;47.474;9.416;2022-11-28T10:43:49;18.43;;;13.53;;
11267;SDS011;49397;47.474;9.416;2022-11-28T10:46:44;16.20;;;12.47;;
11267;SDS011;49397;47.474;9.416;2022-11-28T10:49:46;20.20;;;13.70;;
11267;SDS011;49397;47.474;9.416;2022-11-28T10:52:20;18.00;;;13.10;;
11267;SDS011;49397;47.474;9.416;2022-11-28T10:54:59;17.40;;;12.77;;
11267;SDS011;49397;47.474;9.416;2022-11-28T10:57:29;16.63;;;11.97;;
11267;SDS011;49397;47.474;9.416;2022-11-28T11:00:15;18.97;;;12.67;;
11267;SDS011;49397;47.474;9.416;2022-11-28T11:02:49;17.63;;;13.27;;
11267;SDS011;49397;47.474;9.416;2022-11-28T11:07:53;22.40;;;14.90;;
11267;SDS011;49397;47.474;9.416;2022-11-28T11:10:38;37.30;;;23.23;;
11267;SDS011;49397;47.474;9.416;2022-11-28T11:13:18;19.93;;;13.93;;
11267;SDS011;49397;47.474;9.416;2022-11-28T11:15:57;33.50;;;23.57;;
11267;SDS011;49397;47.474;9.416;2022-11-28T11:21:17;19.37;;;15.50;;
11267;SDS011;49397;47.474;9.416;2022-11-28T11:23:44;18.83;;;13.63;;
11267;SDS011;49397;47.474;9.416;2022-11-28T11:26:33;18.73;;;14.00;;
11267;SDS011;49397;47.474;9.416;2022-11-28T11:29:00;20.47;;;13.00;;
11267;SDS011;49397;47.474;9.416;2022-11-28T11:31:27;20.33;;;13.57;;
11267;SDS011;49397;47.474;9.416;2022-11-28T11:34:11;18.00;;;13.00;;
11267;SDS011;49397;47.474;9.416;2022-11-28T11:36:40;19.30;;;13.50;;
11267;SDS011;49397;47.474;9.416;2022-11-28T11:39:13;20.33;;;14.57;;
11267;SDS011;49397;47.474;9.416;2022-11-28T11:41:46;17.13;;;13.60;;
11267;SDS011;49397;47.474;9.416;2022-11-28T11:46:51;20.07;;;14.07;;
11267;SDS011;49397;47.474;9.416;2022-11-28T11:52:10;21.27;;;13.37;;
11267;SDS011;49397;47.474;9.416;2022-11-28T11:54:51;21.03;;;14.97;;
11267;SDS011;49397;47.474;9.416;2022-11-28T11:57:18;17.73;;;12.40;;
11267;SDS011;49397;47.474;9.416;2022-11-28T11:59:49;21.70;;;14.77;;
11267;SDS011;49397;47.474;9.416;2022-11-28T12:02:26;18.63;;;13.10;;
11267;SDS011;49397;47.474;9.416;2022-11-28T12:05:13;22.23;;;13.40;;
11267;SDS011;49397;47.474;9.416;2022-11-28T12:07:53;19.67;;;13.53;;
11267;SDS011;49397;47.474;9.416;2022-11-28T12:10:21;22.57;;;14.10;;
11267;SDS011;49397;47.474;9.416;2022-11-28T12:12:50;18.63;;;13.50;;
11267;SDS011;49397;47.474;9.416;2022-11-28T12:15:26;18.03;;;13.27;;
11267;SDS011;49397;47.474;9.416;2022-11-28T12:27:05;17.93;;;12.97;;
11267;SDS011;49397;47.474;9.416;2022-11-28T12:32:27;22.13;;;14.53;;
11267;SDS011;49397;47.474;9.416;2022-11-28T12:40:13;19.53;;;14.07;;
11267;SDS011;49397;47.474;9.416;2022-11-28T12:43:18;18.60;;;12.50;;
11267;SDS011;49397;47.474;9.416;2022-11-28T12:45:58;18.67;;;13.83;;
11267;SDS011;49397;47.474;9.416;2022-11-28T12:56:46;17.27;;;13.70;;
11267;SDS011;49397;47.474;9.416;2022-11-28T12:59:36;16.90;;;12.60;;
11267;SDS011;49397;47.474;9.416;2022-11-28T13:10:27;15.50;;;12.67;;
11267;SDS011;49397;47.474;9.416;2022-11-28T13:18:19;16.53;;;13.47;;
11267;SDS011;49397;47.474;9.416;2022-11-28T13:21:37;17.27;;;13.37;;
11267;SDS011;49397;47.474;9.416;2022-11-28T13:34:48;18.87;;;13.43;;
11267;SDS011;49397;47.474;9.416;2022-11-28T13:39:56;18.23;;;14.73;;
11267;SDS011;49397;47.474;9.416;2022-11-28T13:42:49;17.03;;;12.17;;
11267;SDS011;49397;47.474;9.416;2022-11-28T13:45:28;18.70;;;12.30;;
11267;SDS011;49397;47.474;9.416;2022-11-28T13:47:56;17.53;;;13.33;;
11267;SDS011;49397;47.474;9.416;2022-11-28T13:52:57;20.03;;;13.13;;
11267;SDS011;49397;47.474;9.416;2022-11-28T13:58:55;17.17;;;13.13;;
11267;SDS011;49397;47.474;9.416;2022-11-28T14:11:56;18.33;;;12.73;;
11267;SDS011;49397;47.474;9.416;2022-11-28T14:15:01;19.63;;;12.87;;
11267;SDS011;49397;47.474;9.416;2022-11-28T14:20:19;16.93;;;13.23;;
11267;SDS011;49397;47.474;9.416;2022-11-28T14:26:13;15.73;;;12.27;;
11267;SDS011;49397;47.474;9.416;2022-11-28T14:28:49;18.67;;;13.87;;
11267;SDS011;49397;47.474;9.416;2022-11-28T14:31:32;17.30;;;13.40;;
11267;SDS011;49397;47.474;9.416;2022-11-28T14:34:04;19.73;;;13.47;;
11267;SDS011;49397;47.474;9.416;2022-11-28T14:36:49;17.63;;;13.37;;
11267;SDS011;49397;47.474;9.416;2022-11-28T14:39:43;17.90;;;13.23;;
11267;SDS011;49397;47.474;9.416;2022-11-28T14:52:37;17.53;;;13.83;;
11267;SDS011;49397;47.474;9.416;2022-11-28T14:57:32;18.87;;;13.90;;
11267;SDS011;49397;47.474;9.416;2022-11-28T15:00:23;15.50;;;13.13;;
11267;SDS011;49397;47.474;9.416;2022-11-28T15:05:47;18.83;;;13.77;;
11267;SDS011;49397;47.474;9.416;2022-11-28T15:08:33;21.13;;;13.37;;
11267;SDS011;49397;47.474;9.416;2022-11-28T15:11:28;17.97;;;12.90;;
11267;SDS011;49397;47.474;9.416;2022-11-28T15:14:24;17.37;;;13.63;;
11267;SDS011;49397;47.474;9.416;2022-11-28T15:16:54;18.30;;;13.37;;
11267;SDS011;49397;47.474;9.416;2022-11-28T15:19:30;16.60;;;13.63;;
11267;SDS011;49397;47.474;9.416;2022-11-28T15:21:57;18.93;;;13.63;;
11267;SDS011;49397;47.474;9.416;2022-11-28T15:24:27;21.87;;;15.30;;
11267;SDS011;49397;47.474;9.416;2022-11-28T15:26:53;20.13;;;14.17;;
11267;SDS011;49397;47.474;9.416;2022-11-28T15:29:22;20.50;;;13.70;;
11267;SDS011;49397;47.474;9.416;2022-11-28T15:31:50;17.67;;;13.10;;
11267;SDS011;49397;47.474;9.416;2022-11-28T15:34:22;18.87;;;14.10;;
11267;SDS011;49397;47.474;9.416;2022-11-28T15:36:50;18.40;;;13.30;;
11267;SDS011;49397;47.474;9.416;2022-11-28T15:39:23;20.10;;;12.93;;
11267;SDS011;49397;47.474;9.416;2022-11-28T15:41:49;18.90;;;13.43;;
11267;SDS011;49397;47.474;9.416;2022-11-28T15:44:15;19.37;;;13.67;;
11267;SDS011;49397;47.474;9.416;2022-11-28T15:46:41;16.20;;;12.40;;
11267;SDS011;49397;47.474;9.416;2022-11-28T15:51:50;17.90;;;13.13;;
11267;SDS011;49397;47.474;9.416;2022-11-28T15:54:30;17.83;;;13.53;;
11267;SDS011;49397;47.474;9.416;2022-11-28T15:56:56;19.93;;;13.67;;
11267;SDS011;49397;47.474;9.416;2022-11-28T15:59:22;19.30;;;13.07;;
11267;SDS011;49397;47.474;9.416;2022-11-28T16:01:48;16.37;;;12.03;;
11267;SDS011;49397;47.474;9.416;2022-11-28T16:04:14;23.37;;;14.23;;
11267;SDS011;49397;47.474;9.416;2022-11-28T16:06:43;19.73;;;12.87;;
11267;SDS011;49397;47.474;9.416;2022-11-28T16:11:42;17.73;;;14.23;;
11267;SDS011;49397;47.474;9.416;2022-11-28T16:14:14;16.97;;;13.70;;
11267;SDS011;49397;47.474;9.416;2022-11-28T16:16:45;17.70;;;12.50;;
11267;SDS011;49397;47.474;9.416;2022-11-28T16:19:43;16.27;;;11.57;;
11267;SDS011;49397;47.474;9.416;2022-11-28T16:22:03;16.20;;;10.40;;
11267;SDS011;49397;47.474;9.416;2022-11-28T16:24:37;13.13;;;10.47;;
11267;SDS011;49397;47.474;9.416;2022-11-28T16:27:21;19.23;;;11.13;;
11267;SDS011;49397;47.474;9.416;2022-11-28T16:29:54;14.80;;;11.17;;
11267;SDS011;49397;47.474;9.416;2022-11-28T16:32:21;13.50;;;9.30;;
11267;SDS011;49397;47.474;9.416;2022-11-28T16:35:10;16.70;;;10.47;;
11267;SDS011;49397;47.474;9.416;2022-11-28T16:37:36;13.87;;;11.03;;
11267;SDS011;49397;47.474;9.416;2022-11-28T16:40:14;13.83;;;9.77;;
11267;SDS011;49397;47.474;9.416;2022-11-28T16:42:53;13.37;;;9.17;;
11267;SDS011;49397;47.474;9.416;2022-11-28T16:45:26;12.47;;;9.53;;
11267;SDS011;49397;47.474;9.416;2022-11-28T16:50:39;14.63;;;11.63;;
11267;SDS011;49397;47.474;9.416;2022-11-28T16:53:48;16.20;;;11.87;;
11267;SDS011;49397;47.474;9.416;2022-11-28T16:58:59;14.30;;;11.20;;
11267;SDS011;49397;47.474;9.416;2022-11-28T17:01:34;17.43;;;12.87;;
11267;SDS011;49397;47.474;9.416;2022-11-28T17:04:00;23.07;;;14.13;;
11267;SDS011;49397;47.474;9.416;2022-11-28T17:06:29;20.03;;;13.03;;
11267;SDS011;49397;47.474;9.416;2022-11-28T17:09:08;19.10;;;12.87;;
11267;SDS011;49397;47.474;9.416;2022-11-28T17:11:36;16.70;;;11.87;;
11267;SDS011;49397;47.474;9.416;2022-11-28T17:14:04;15.27;;;10.77;;
11267;SDS011;49397;47.474;9.416;2022-11-28T17:16:32;20.13;;;11.30;;
11267;SDS011;49397;47.474;9.416;2022-11-28T17:18:58;14.70;;;12.23;;
11267;SDS011;49397;47.474;9.416;2022-11-28T17:23:57;15.57;;;10.93;;
11267;SDS011;49397;47.474;9.416;2022-11-28T17:26:24;14.10;;;10.17;;
11267;SDS011;49397;47.474;9.416;2022-11-28T17:28:49;19.40;;;9.77;;
11267;SDS011;49397;47.474;9.416;2022-11-28T17:31:15;14.53;;;9.00;;
11267;SDS011;49397;47.474;9.416;2022-11-28T17:33:40;10.87;;;7.90;;
11267;SDS011;49397;47.474;9.416;2022-11-28T17:36:08;11.07;;;8.60;;
11267;SDS011;49397;47.474;9.416;2022-11-28T17:38:35;10.50;;;8.13;;
11267;SDS011;49397;47.474;9.416;2022-11-28T17:41:02;12.23;;;8.57;;
11267;SDS011;49397;47.474;9.416;2022-11-28T17:43:28;11.17;;;7.60;;
11267;SDS011;49397;47.474;9.416;2022-11-28T17:45:54;10.23;;;6.90;;
11267;SDS011;49397;47.474;9.416;2022-11-28T17:48:20;7.80;;;6.23;;
11267;SDS011;49397;47.474;9.416;2022-11-28T17:50:46;13.27;;;6.47;;